sensor_id;sensor_type;location;lat;lon;timestamp;P1;durP1;ratioP1;P2;durP2;ratioP2
10851;SDS011;5479;52.046;6.314;2023-03-14T00:01:31;6.60;;;3.00;;
10851;SDS011;5479;52.046;6.314;2023-03-14T00:03:59;8.63;;;3.30;;
10851;SDS011;5479;52.046;6.314;2023-03-14T00:06:27;9.90;;;3.07;;
10851;SDS011;5479;52.046;6.314;2023-03-14T00:08:55;9.83;;;3.57;;
10851;SDS011;5479;52.046;6.314;2023-03-14T00:11:23;9.07;;;3.30;;
10851;SDS011;5479;52.046;6.314;2023-03-14T00:13:51;5.97;;;2.97;;
10851;SDS011;5479;52.046;6.314;2023-03-14T00:16:19;8.27;;;2.60;;
10851;SDS011;5479;52.046;6.314;2023-03-14T00:18:49;7.03;;;2.90;;
10851;SDS011;5479;52.046;6.314;2023-03-14T00:21:19;7.97;;;3.20;;
10851;SDS011;5479;52.046;6.314;2023-03-14T00:23:47;8.73;;;2.97;;
10851;SDS011;5479;52.046;6.314;2023-03-14T00:26:16;8.10;;;2.73;;
10851;SDS011;5479;52.046;6.314;2023-03-14T00:28:45;8.43;;;2.90;;
10851;SDS011;5479;52.046;6.314;2023-03-14T00:31:14;9.57;;;2.80;;
10851;SDS011;5479;52.046;6.314;2023-03-14T00:33:43;8.03;;;2.70;;
10851;SDS011;5479;52.046;6.314;2023-03-14T00:36:14;6.20;;;2.53;;
10851;SDS011;5479;52.046;6.314;2023-03-14T00:38:44;11.77;;;3.07;;
10851;SDS011;5479;52.046;6.314;2023-03-14T00:41:14;8.10;;;3.10;;
10851;SDS011;5479;52.046;6.314;2023-03-14T00:43:43;8.40;;;2.83;;
10851;SDS011;5479;52.046;6.314;2023-03-14T00:46:11;6.03;;;2.87;;
10851;SDS011;5479;52.046;6.314;2023-03-14T00:48:40;8.20;;;3.23;;
10851;SDS011;5479;52.046;6.314;2023-03-14T00:51:08;7.30;;;3.13;;
10851;SDS011;5479;52.046;6.314;2023-03-14T00:53:39;9.27;;;3.30;;
10851;SDS011;5479;52.046;6.314;2023-03-14T00:56:08;9.20;;;3.10;;
10851;SDS011;5479;52.046;6.314;2023-03-14T00:58:37;9.23;;;3.53;;
10851;SDS011;5479;52.046;6.314;2023-03-14T01:01:06;8.23;;;3.23;;
10851;SDS011;5479;52.046;6.314;2023-03-14T01:03:35;7.73;;;2.90;;
10851;SDS011;5479;52.046;6.314;2023-03-14T01:06:08;7.33;;;2.90;;
10851;SDS011;5479;52.046;6.314;2023-03-14T01:08:39;8.33;;;3.40;;
10851;SDS011;5479;52.046;6.314;2023-03-14T01:11:07;7.70;;;3.00;;
10851;SDS011;5479;52.046;6.314;2023-03-14T01:13:36;9.00;;;3.17;;
10851;SDS011;5479;52.046;6.314;2023-03-14T01:16:05;10.37;;;3.00;;
10851;SDS011;5479;52.046;6.314;2023-03-14T01:18:35;10.73;;;3.47;;
10851;SDS011;5479;52.046;6.314;2023-03-14T01:21:03;8.73;;;3.03;;
10851;SDS011;5479;52.046;6.314;2023-03-14T01:23:36;9.67;;;2.93;;
10851;SDS011;5479;52.046;6.314;2023-03-14T01:26:06;10.03;;;3.03;;
10851;SDS011;5479;52.046;6.314;2023-03-14T01:28:36;8.53;;;2.77;;
10851;SDS011;5479;52.046;6.314;2023-03-14T01:31:04;7.97;;;3.20;;
10851;SDS011;5479;52.046;6.314;2023-03-14T01:33:32;7.53;;;2.60;;
10851;SDS011;5479;52.046;6.314;2023-03-14T01:36:00;7.67;;;2.80;;
10851;SDS011;5479;52.046;6.314;2023-03-14T01:38:29;10.40;;;3.00;;
10851;SDS011;5479;52.046;6.314;2023-03-14T01:40:57;7.47;;;2.73;;
10851;SDS011;5479;52.046;6.314;2023-03-14T01:43:27;9.03;;;2.80;;
10851;SDS011;5479;52.046;6.314;2023-03-14T01:49:04;5.83;;;2.40;;
10851;SDS011;5479;52.046;6.314;2023-03-14T01:51:40;6.87;;;2.40;;
10851;SDS011;5479;52.046;6.314;2023-03-14T01:54:13;5.80;;;2.50;;
10851;SDS011;5479;52.046;6.314;2023-03-14T01:56:46;6.90;;;2.30;;
10851;SDS011;5479;52.046;6.314;2023-03-14T01:59:19;5.80;;;2.27;;
10851;SDS011;5479;52.046;6.314;2023-03-14T02:01:48;6.30;;;2.03;;
10851;SDS011;5479;52.046;6.314;2023-03-14T02:04:19;7.73;;;2.07;;
10851;SDS011;5479;52.046;6.314;2023-03-14T02:06:51;7.63;;;2.63;;
10851;SDS011;5479;52.046;6.314;2023-03-14T02:09:21;8.20;;;2.23;;
10851;SDS011;5479;52.046;6.314;2023-03-14T02:11:50;10.37;;;2.60;;
10851;SDS011;5479;52.046;6.314;2023-03-14T02:14:24;5.93;;;2.20;;
10851;SDS011;5479;52.046;6.314;2023-03-14T02:16:57;6.53;;;2.00;;
10851;SDS011;5479;52.046;6.314;2023-03-14T02:19:28;6.77;;;1.90;;
10851;SDS011;5479;52.046;6.314;2023-03-14T02:22:11;6.33;;;2.00;;
10851;SDS011;5479;52.046;6.314;2023-03-14T02:24:42;6.77;;;2.20;;
10851;SDS011;5479;52.046;6.314;2023-03-14T02:27:15;5.40;;;2.17;;
10851;SDS011;5479;52.046;6.314;2023-03-14T02:29:46;6.60;;;1.90;;
10851;SDS011;5479;52.046;6.314;2023-03-14T02:32:17;9.03;;;2.40;;
10851;SDS011;5479;52.046;6.314;2023-03-14T02:34:48;6.90;;;2.23;;
10851;SDS011;5479;52.046;6.314;2023-03-14T02:37:19;8.47;;;2.07;;
10851;SDS011;5479;52.046;6.314;2023-03-14T02:39:51;5.63;;;2.07;;
10851;SDS011;5479;52.046;6.314;2023-03-14T02:42:20;7.60;;;2.20;;
10851;SDS011;5479;52.046;6.314;2023-03-14T02:44:51;6.60;;;2.17;;
10851;SDS011;5479;52.046;6.314;2023-03-14T02:47:21;6.77;;;2.53;;
10851;SDS011;5479;52.046;6.314;2023-03-14T02:49:58;5.33;;;1.73;;
10851;SDS011;5479;52.046;6.314;2023-03-14T02:52:29;8.13;;;2.23;;
10851;SDS011;5479;52.046;6.314;2023-03-14T02:54:58;6.27;;;1.80;;
10851;SDS011;5479;52.046;6.314;2023-03-14T02:57:27;8.10;;;2.17;;
10851;SDS011;5479;52.046;6.314;2023-03-14T02:59:57;6.57;;;2.33;;
10851;SDS011;5479;52.046;6.314;2023-03-14T03:02:25;4.10;;;1.80;;
10851;SDS011;5479;52.046;6.314;2023-03-14T03:04:53;7.53;;;2.13;;
10851;SDS011;5479;52.046;6.314;2023-03-14T03:07:21;8.73;;;2.40;;
10851;SDS011;5479;52.046;6.314;2023-03-14T03:09:49;4.67;;;1.73;;
10851;SDS011;5479;52.046;6.314;2023-03-14T03:12:17;8.30;;;2.30;;
10851;SDS011;5479;52.046;6.314;2023-03-14T03:14:46;9.10;;;2.43;;
10851;SDS011;5479;52.046;6.314;2023-03-14T03:17:14;9.40;;;2.27;;
10851;SDS011;5479;52.046;6.314;2023-03-14T03:19:42;7.63;;;2.20;;
10851;SDS011;5479;52.046;6.314;2023-03-14T03:22:10;7.97;;;2.20;;
10851;SDS011;5479;52.046;6.314;2023-03-14T03:24:38;8.00;;;2.83;;
10851;SDS011;5479;52.046;6.314;2023-03-14T03:27:06;6.37;;;2.17;;
10851;SDS011;5479;52.046;6.314;2023-03-14T03:29:34;6.17;;;2.30;;
10851;SDS011;5479;52.046;6.314;2023-03-14T03:32:04;6.10;;;2.13;;
10851;SDS011;5479;52.046;6.314;2023-03-14T03:34:32;9.47;;;2.37;;
10851;SDS011;5479;52.046;6.314;2023-03-14T03:36:59;8.67;;;2.50;;
10851;SDS011;5479;52.046;6.314;2023-03-14T03:39:27;5.23;;;2.00;;
10851;SDS011;5479;52.046;6.314;2023-03-14T03:41:55;7.20;;;2.53;;
10851;SDS011;5479;52.046;6.314;2023-03-14T03:44:23;6.87;;;2.40;;
10851;SDS011;5479;52.046;6.314;2023-03-14T03:46:51;6.77;;;2.40;;
10851;SDS011;5479;52.046;6.314;2023-03-14T03:49:20;4.70;;;1.90;;
10851;SDS011;5479;52.046;6.314;2023-03-14T03:51:48;9.03;;;2.50;;
10851;SDS011;5479;52.046;6.314;2023-03-14T03:54:16;8.67;;;2.53;;
10851;SDS011;5479;52.046;6.314;2023-03-14T03:56:44;8.97;;;2.57;;
10851;SDS011;5479;52.046;6.314;2023-03-14T03:59:12;7.43;;;2.37;;
10851;SDS011;5479;52.046;6.314;2023-03-14T04:01:40;7.33;;;2.20;;
10851;SDS011;5479;52.046;6.314;2023-03-14T04:04:08;7.43;;;2.40;;
10851;SDS011;5479;52.046;6.314;2023-03-14T04:06:38;9.37;;;2.67;;
10851;SDS011;5479;52.046;6.314;2023-03-14T04:09:06;9.27;;;2.20;;
10851;SDS011;5479;52.046;6.314;2023-03-14T04:11:34;8.47;;;2.23;;
10851;SDS011;5479;52.046;6.314;2023-03-14T04:14:02;7.83;;;2.40;;
10851;SDS011;5479;52.046;6.314;2023-03-14T04:16:30;6.53;;;2.20;;
10851;SDS011;5479;52.046;6.314;2023-03-14T04:18:58;6.13;;;2.27;;
10851;SDS011;5479;52.046;6.314;2023-03-14T04:21:28;8.00;;;2.20;;
10851;SDS011;5479;52.046;6.314;2023-03-14T04:23:57;7.63;;;2.43;;
10851;SDS011;5479;52.046;6.314;2023-03-14T04:26:25;7.53;;;2.33;;
10851;SDS011;5479;52.046;6.314;2023-03-14T04:28:53;5.87;;;2.17;;
10851;SDS011;5479;52.046;6.314;2023-03-14T04:31:21;8.27;;;2.23;;
10851;SDS011;5479;52.046;6.314;2023-03-14T04:33:49;8.03;;;2.40;;
10851;SDS011;5479;52.046;6.314;2023-03-14T04:36:19;8.87;;;2.60;;
10851;SDS011;5479;52.046;6.314;2023-03-14T04:38:47;9.97;;;2.40;;
10851;SDS011;5479;52.046;6.314;2023-03-14T04:41:16;7.73;;;2.30;;
10851;SDS011;5479;52.046;6.314;2023-03-14T04:43:44;10.17;;;2.47;;
10851;SDS011;5479;52.046;6.314;2023-03-14T04:46:12;5.33;;;2.37;;
10851;SDS011;5479;52.046;6.314;2023-03-14T04:48:40;5.93;;;2.30;;
10851;SDS011;5479;52.046;6.314;2023-03-14T04:51:08;7.97;;;2.50;;
10851;SDS011;5479;52.046;6.314;2023-03-14T04:53:36;6.73;;;2.40;;
10851;SDS011;5479;52.046;6.314;2023-03-14T04:56:04;6.20;;;2.27;;
10851;SDS011;5479;52.046;6.314;2023-03-14T04:58:34;8.70;;;2.60;;
10851;SDS011;5479;52.046;6.314;2023-03-14T05:01:02;5.37;;;1.97;;
10851;SDS011;5479;52.046;6.314;2023-03-14T05:03:30;5.73;;;2.50;;
10851;SDS011;5479;52.046;6.314;2023-03-14T05:05:58;9.17;;;2.53;;
10851;SDS011;5479;52.046;6.314;2023-03-14T05:08:27;6.67;;;2.10;;
10851;SDS011;5479;52.046;6.314;2023-03-14T05:10:55;7.57;;;2.50;;
10851;SDS011;5479;52.046;6.314;2023-03-14T05:13:24;8.13;;;2.53;;
10851;SDS011;5479;52.046;6.314;2023-03-14T05:16:02;7.23;;;2.23;;
10851;SDS011;5479;52.046;6.314;2023-03-14T05:18:30;5.57;;;2.10;;
10851;SDS011;5479;52.046;6.314;2023-03-14T05:20:58;7.10;;;2.60;;
10851;SDS011;5479;52.046;6.314;2023-03-14T05:23:26;7.70;;;2.50;;
10851;SDS011;5479;52.046;6.314;2023-03-14T05:25:55;5.67;;;2.07;;
10851;SDS011;5479;52.046;6.314;2023-03-14T05:28:23;6.47;;;2.10;;
10851;SDS011;5479;52.046;6.314;2023-03-14T05:30:51;8.77;;;2.30;;
10851;SDS011;5479;52.046;6.314;2023-03-14T05:33:20;7.77;;;2.27;;
10851;SDS011;5479;52.046;6.314;2023-03-14T05:35:48;7.50;;;2.40;;
10851;SDS011;5479;52.046;6.314;2023-03-14T05:38:16;8.37;;;2.47;;
10851;SDS011;5479;52.046;6.314;2023-03-14T05:40:44;5.00;;;1.97;;
10851;SDS011;5479;52.046;6.314;2023-03-14T05:43:13;5.27;;;2.33;;
10851;SDS011;5479;52.046;6.314;2023-03-14T05:45:42;6.33;;;1.90;;
10851;SDS011;5479;52.046;6.314;2023-03-14T05:48:10;6.57;;;2.23;;
10851;SDS011;5479;52.046;6.314;2023-03-14T05:50:39;6.27;;;2.13;;
10851;SDS011;5479;52.046;6.314;2023-03-14T05:53:07;7.43;;;3.10;;
10851;SDS011;5479;52.046;6.314;2023-03-14T05:55:35;5.43;;;2.00;;
10851;SDS011;5479;52.046;6.314;2023-03-14T05:58:04;6.10;;;2.17;;
10851;SDS011;5479;52.046;6.314;2023-03-14T06:00:32;7.80;;;2.13;;
10851;SDS011;5479;52.046;6.314;2023-03-14T06:03:00;7.40;;;2.27;;
10851;SDS011;5479;52.046;6.314;2023-03-14T06:05:27;7.27;;;2.07;;
10851;SDS011;5479;52.046;6.314;2023-03-14T06:07:57;6.77;;;2.07;;
10851;SDS011;5479;52.046;6.314;2023-03-14T06:10:24;5.83;;;2.13;;
10851;SDS011;5479;52.046;6.314;2023-03-14T06:12:52;7.63;;;2.20;;
10851;SDS011;5479;52.046;6.314;2023-03-14T06:15:21;5.53;;;2.27;;
10851;SDS011;5479;52.046;6.314;2023-03-14T06:17:49;6.67;;;2.30;;
10851;SDS011;5479;52.046;6.314;2023-03-14T06:20:17;5.47;;;2.50;;
10851;SDS011;5479;52.046;6.314;2023-03-14T06:22:45;5.67;;;2.30;;
10851;SDS011;5479;52.046;6.314;2023-03-14T06:25:14;6.90;;;2.40;;
10851;SDS011;5479;52.046;6.314;2023-03-14T06:27:42;6.93;;;2.47;;
10851;SDS011;5479;52.046;6.314;2023-03-14T06:30:10;7.80;;;2.60;;
10851;SDS011;5479;52.046;6.314;2023-03-14T06:32:38;5.93;;;2.90;;
10851;SDS011;5479;52.046;6.314;2023-03-14T06:35:06;4.67;;;2.30;;
10851;SDS011;5479;52.046;6.314;2023-03-14T06:37:35;6.77;;;2.57;;
10851;SDS011;5479;52.046;6.314;2023-03-14T06:40:03;6.27;;;2.87;;
10851;SDS011;5479;52.046;6.314;2023-03-14T06:42:35;4.73;;;2.63;;
10851;SDS011;5479;52.046;6.314;2023-03-14T06:45:04;4.83;;;2.87;;
10851;SDS011;5479;52.046;6.314;2023-03-14T06:47:33;5.30;;;3.00;;
10851;SDS011;5479;52.046;6.314;2023-03-14T06:50:00;6.37;;;3.20;;
10851;SDS011;5479;52.046;6.314;2023-03-14T06:52:29;5.30;;;3.20;;
10851;SDS011;5479;52.046;6.314;2023-03-14T06:54:57;6.07;;;3.50;;
10851;SDS011;5479;52.046;6.314;2023-03-14T06:57:24;5.37;;;3.33;;
10851;SDS011;5479;52.046;6.314;2023-03-14T06:59:54;6.43;;;3.90;;
10851;SDS011;5479;52.046;6.314;2023-03-14T07:02:22;7.50;;;3.93;;
10851;SDS011;5479;52.046;6.314;2023-03-14T07:04:50;8.17;;;3.80;;
10851;SDS011;5479;52.046;6.314;2023-03-14T07:07:18;5.60;;;3.60;;
10851;SDS011;5479;52.046;6.314;2023-03-14T07:09:46;6.87;;;4.37;;
10851;SDS011;5479;52.046;6.314;2023-03-14T07:12:13;6.47;;;4.00;;
10851;SDS011;5479;52.046;6.314;2023-03-14T07:14:41;6.90;;;4.00;;
10851;SDS011;5479;52.046;6.314;2023-03-14T07:17:11;7.50;;;3.97;;
10851;SDS011;5479;52.046;6.314;2023-03-14T07:19:38;8.87;;;4.30;;
10851;SDS011;5479;52.046;6.314;2023-03-14T07:22:07;9.10;;;4.07;;
10851;SDS011;5479;52.046;6.314;2023-03-14T07:24:35;6.13;;;4.20;;
10851;SDS011;5479;52.046;6.314;2023-03-14T07:27:03;6.33;;;4.10;;
10851;SDS011;5479;52.046;6.314;2023-03-14T07:29:30;6.47;;;4.33;;
10851;SDS011;5479;52.046;6.314;2023-03-14T07:31:58;7.97;;;4.60;;
10851;SDS011;5479;52.046;6.314;2023-03-14T07:34:28;6.90;;;4.30;;
10851;SDS011;5479;52.046;6.314;2023-03-14T07:36:56;6.90;;;4.30;;
10851;SDS011;5479;52.046;6.314;2023-03-14T07:39:24;8.60;;;4.70;;
10851;SDS011;5479;52.046;6.314;2023-03-14T07:41:52;8.03;;;4.57;;
10851;SDS011;5479;52.046;6.314;2023-03-14T07:44:20;6.50;;;4.40;;
10851;SDS011;5479;52.046;6.314;2023-03-14T07:46:48;6.67;;;4.43;;
10851;SDS011;5479;52.046;6.314;2023-03-14T07:49:16;6.77;;;4.30;;
10851;SDS011;5479;52.046;6.314;2023-03-14T07:51:48;9.87;;;4.60;;
10851;SDS011;5479;52.046;6.314;2023-03-14T07:54:16;7.27;;;4.50;;
10851;SDS011;5479;52.046;6.314;2023-03-14T07:56:44;8.13;;;4.50;;
10851;SDS011;5479;52.046;6.314;2023-03-14T07:59:12;7.20;;;4.10;;
10851;SDS011;5479;52.046;6.314;2023-03-14T08:01:40;7.57;;;4.20;;
10851;SDS011;5479;52.046;6.314;2023-03-14T08:04:08;5.03;;;2.60;;
10851;SDS011;5479;52.046;6.314;2023-03-14T08:06:36;3.77;;;1.90;;
10851;SDS011;5479;52.046;6.314;2023-03-14T08:09:05;3.00;;;1.33;;
10851;SDS011;5479;52.046;6.314;2023-03-14T08:11:33;3.20;;;1.20;;
10851;SDS011;5479;52.046;6.314;2023-03-14T08:14:01;1.53;;;0.87;;
10851;SDS011;5479;52.046;6.314;2023-03-14T08:16:29;1.37;;;1.00;;
10851;SDS011;5479;52.046;6.314;2023-03-14T08:18:57;1.67;;;0.80;;
10851;SDS011;5479;52.046;6.314;2023-03-14T08:21:25;1.90;;;0.80;;
10851;SDS011;5479;52.046;6.314;2023-03-14T08:23:53;0.93;;;0.80;;
10851;SDS011;5479;52.046;6.314;2023-03-14T08:26:22;2.17;;;0.80;;
10851;SDS011;5479;52.046;6.314;2023-03-14T08:28:50;1.10;;;0.70;;
10851;SDS011;5479;52.046;6.314;2023-03-14T08:31:18;2.90;;;1.10;;
10851;SDS011;5479;52.046;6.314;2023-03-14T08:33:46;1.80;;;1.20;;
10851;SDS011;5479;52.046;6.314;2023-03-14T08:36:14;1.30;;;1.00;;
10851;SDS011;5479;52.046;6.314;2023-03-14T08:38:41;2.27;;;1.20;;
10851;SDS011;5479;52.046;6.314;2023-03-14T08:41:10;1.20;;;1.10;;
10851;SDS011;5479;52.046;6.314;2023-03-14T08:43:39;1.70;;;0.90;;
10851;SDS011;5479;52.046;6.314;2023-03-14T08:46:07;1.80;;;0.93;;
10851;SDS011;5479;52.046;6.314;2023-03-14T08:48:35;2.73;;;0.80;;
10851;SDS011;5479;52.046;6.314;2023-03-14T08:51:07;2.53;;;0.97;;
10851;SDS011;5479;52.046;6.314;2023-03-14T08:53:37;2.57;;;0.80;;
10851;SDS011;5479;52.046;6.314;2023-03-14T08:56:05;2.60;;;1.20;;
10851;SDS011;5479;52.046;6.314;2023-03-14T08:58:36;2.80;;;1.40;;
10851;SDS011;5479;52.046;6.314;2023-03-14T09:01:07;4.20;;;1.17;;
10851;SDS011;5479;52.046;6.314;2023-03-14T09:03:35;3.90;;;1.67;;
10851;SDS011;5479;52.046;6.314;2023-03-14T09:06:04;6.20;;;1.73;;
10851;SDS011;5479;52.046;6.314;2023-03-14T09:08:34;5.23;;;1.60;;
10851;SDS011;5479;52.046;6.314;2023-03-14T09:11:02;4.80;;;1.80;;
10851;SDS011;5479;52.046;6.314;2023-03-14T09:13:30;4.07;;;1.73;;
10851;SDS011;5479;52.046;6.314;2023-03-14T09:15:59;4.87;;;1.67;;
10851;SDS011;5479;52.046;6.314;2023-03-14T09:18:28;3.53;;;1.40;;
10851;SDS011;5479;52.046;6.314;2023-03-14T09:20:57;3.90;;;1.30;;
10851;SDS011;5479;52.046;6.314;2023-03-14T09:23:25;3.20;;;1.30;;
10851;SDS011;5479;52.046;6.314;2023-03-14T09:25:54;4.50;;;1.47;;
10851;SDS011;5479;52.046;6.314;2023-03-14T09:28:22;5.60;;;1.33;;
10851;SDS011;5479;52.046;6.314;2023-03-14T09:30:50;4.17;;;1.60;;
10851;SDS011;5479;52.046;6.314;2023-03-14T09:33:18;4.10;;;1.50;;
10851;SDS011;5479;52.046;6.314;2023-03-14T09:35:48;3.77;;;1.20;;
10851;SDS011;5479;52.046;6.314;2023-03-14T09:38:16;1.47;;;0.70;;
10851;SDS011;5479;52.046;6.314;2023-03-14T09:40:44;1.50;;;0.67;;
10851;SDS011;5479;52.046;6.314;2023-03-14T09:43:12;5.10;;;1.30;;
10851;SDS011;5479;52.046;6.314;2023-03-14T09:45:42;2.97;;;0.93;;
10851;SDS011;5479;52.046;6.314;2023-03-14T09:48:14;1.87;;;0.83;;
10851;SDS011;5479;52.046;6.314;2023-03-14T09:50:45;3.87;;;1.10;;
10851;SDS011;5479;52.046;6.314;2023-03-14T09:53:17;4.23;;;1.00;;
10851;SDS011;5479;52.046;6.314;2023-03-14T09:55:48;3.67;;;1.20;;
10851;SDS011;5479;52.046;6.314;2023-03-14T09:58:19;2.57;;;1.00;;
10851;SDS011;5479;52.046;6.314;2023-03-14T10:00:49;1.63;;;0.80;;
10851;SDS011;5479;52.046;6.314;2023-03-14T10:03:21;2.23;;;1.03;;
10851;SDS011;5479;52.046;6.314;2023-03-14T10:05:53;2.40;;;0.70;;
10851;SDS011;5479;52.046;6.314;2023-03-14T10:08:23;4.87;;;1.23;;
10851;SDS011;5479;52.046;6.314;2023-03-14T10:10:51;4.93;;;1.20;;
10851;SDS011;5479;52.046;6.314;2023-03-14T10:13:21;3.63;;;1.27;;
10851;SDS011;5479;52.046;6.314;2023-03-14T10:15:54;4.43;;;1.37;;
10851;SDS011;5479;52.046;6.314;2023-03-14T10:18:28;4.80;;;1.10;;
10851;SDS011;5479;52.046;6.314;2023-03-14T10:21:03;4.40;;;1.00;;
10851;SDS011;5479;52.046;6.314;2023-03-14T10:23:34;2.87;;;1.00;;
10851;SDS011;5479;52.046;6.314;2023-03-14T10:26:05;4.50;;;1.47;;
10851;SDS011;5479;52.046;6.314;2023-03-14T10:28:38;3.90;;;1.23;;
10851;SDS011;5479;52.046;6.314;2023-03-14T10:31:07;4.20;;;1.30;;
10851;SDS011;5479;52.046;6.314;2023-03-14T10:33:36;4.30;;;1.47;;
10851;SDS011;5479;52.046;6.314;2023-03-14T10:36:17;6.37;;;1.50;;
10851;SDS011;5479;52.046;6.314;2023-03-14T10:38:49;6.20;;;1.57;;
10851;SDS011;5479;52.046;6.314;2023-03-14T10:41:19;6.50;;;1.40;;
10851;SDS011;5479;52.046;6.314;2023-03-14T10:43:51;4.47;;;1.40;;
10851;SDS011;5479;52.046;6.314;2023-03-14T10:46:21;6.07;;;1.90;;
10851;SDS011;5479;52.046;6.314;2023-03-14T10:48:53;7.20;;;1.80;;
10851;SDS011;5479;52.046;6.314;2023-03-14T10:51:26;6.07;;;1.70;;
10851;SDS011;5479;52.046;6.314;2023-03-14T10:53:56;7.17;;;1.70;;
10851;SDS011;5479;52.046;6.314;2023-03-14T10:56:26;8.13;;;2.10;;
10851;SDS011;5479;52.046;6.314;2023-03-14T10:59:00;5.90;;;1.87;;
10851;SDS011;5479;52.046;6.314;2023-03-14T11:01:31;7.20;;;2.10;;
10851;SDS011;5479;52.046;6.314;2023-03-14T11:04:12;7.63;;;2.13;;
10851;SDS011;5479;52.046;6.314;2023-03-14T11:06:50;10.10;;;2.03;;
10851;SDS011;5479;52.046;6.314;2023-03-14T11:09:25;5.63;;;1.50;;
10851;SDS011;5479;52.046;6.314;2023-03-14T11:12:03;12.10;;;2.90;;
10851;SDS011;5479;52.046;6.314;2023-03-14T11:14:50;11.03;;;2.77;;
10851;SDS011;5479;52.046;6.314;2023-03-14T11:17:24;9.57;;;2.53;;
10851;SDS011;5479;52.046;6.314;2023-03-14T11:20:01;9.50;;;2.23;;
10851;SDS011;5479;52.046;6.314;2023-03-14T11:22:45;7.60;;;2.47;;
10851;SDS011;5479;52.046;6.314;2023-03-14T11:25:19;7.57;;;1.70;;
10851;SDS011;5479;52.046;6.314;2023-03-14T11:27:55;9.17;;;2.57;;
10851;SDS011;5479;52.046;6.314;2023-03-14T11:30:35;11.07;;;2.73;;
10851;SDS011;5479;52.046;6.314;2023-03-14T11:33:13;13.27;;;2.60;;
10851;SDS011;5479;52.046;6.314;2023-03-14T11:35:44;10.63;;;2.83;;
10851;SDS011;5479;52.046;6.314;2023-03-14T11:38:23;12.03;;;2.63;;
10851;SDS011;5479;52.046;6.314;2023-03-14T11:40:57;11.47;;;2.90;;
10851;SDS011;5479;52.046;6.314;2023-03-14T11:43:26;13.23;;;2.80;;
10851;SDS011;5479;52.046;6.314;2023-03-14T11:45:58;12.33;;;2.83;;
10851;SDS011;5479;52.046;6.314;2023-03-14T11:48:37;9.73;;;3.23;;
10851;SDS011;5479;52.046;6.314;2023-03-14T11:51:11;16.23;;;2.93;;
10851;SDS011;5479;52.046;6.314;2023-03-14T11:53:53;12.00;;;3.20;;
10851;SDS011;5479;52.046;6.314;2023-03-14T11:56:27;12.03;;;3.00;;
10851;SDS011;5479;52.046;6.314;2023-03-14T11:59:01;11.03;;;2.80;;
10851;SDS011;5479;52.046;6.314;2023-03-14T12:01:35;11.60;;;2.70;;
10851;SDS011;5479;52.046;6.314;2023-03-14T12:04:19;10.60;;;2.63;;
10851;SDS011;5479;52.046;6.314;2023-03-14T12:06:59;10.30;;;2.57;;
10851;SDS011;5479;52.046;6.314;2023-03-14T12:09:33;10.93;;;2.80;;
10851;SDS011;5479;52.046;6.314;2023-03-14T12:12:03;13.70;;;3.43;;
10851;SDS011;5479;52.046;6.314;2023-03-14T12:14:33;14.77;;;3.07;;
10851;SDS011;5479;52.046;6.314;2023-03-14T12:17:04;14.33;;;3.37;;
10851;SDS011;5479;52.046;6.314;2023-03-14T12:19:34;10.03;;;2.30;;
10851;SDS011;5479;52.046;6.314;2023-03-14T12:22:16;8.03;;;2.53;;
10851;SDS011;5479;52.046;6.314;2023-03-14T12:24:53;10.07;;;2.43;;
10851;SDS011;5479;52.046;6.314;2023-03-14T12:30:40;7.00;;;2.37;;
10851;SDS011;5479;52.046;6.314;2023-03-14T12:36:04;9.97;;;2.20;;
10851;SDS011;5479;52.046;6.314;2023-03-14T12:38:51;9.70;;;2.30;;
10851;SDS011;5479;52.046;6.314;2023-03-14T12:41:28;8.73;;;2.20;;
10851;SDS011;5479;52.046;6.314;2023-03-14T12:50:13;9.40;;;2.20;;
10851;SDS011;5479;52.046;6.314;2023-03-14T12:52:49;6.07;;;2.00;;
10851;SDS011;5479;52.046;6.314;2023-03-14T12:55:36;7.37;;;2.00;;
10851;SDS011;5479;52.046;6.314;2023-03-14T12:58:10;5.77;;;1.80;;
10851;SDS011;5479;52.046;6.314;2023-03-14T13:00:46;6.53;;;1.90;;
10851;SDS011;5479;52.046;6.314;2023-03-14T13:03:23;7.50;;;2.40;;
10851;SDS011;5479;52.046;6.314;2023-03-14T13:05:55;13.03;;;2.27;;
10851;SDS011;5479;52.046;6.314;2023-03-14T13:08:36;6.07;;;1.80;;
10851;SDS011;5479;52.046;6.314;2023-03-14T13:11:07;8.20;;;1.90;;
10851;SDS011;5479;52.046;6.314;2023-03-14T13:13:42;7.20;;;1.80;;
10851;SDS011;5479;52.046;6.314;2023-03-14T13:16:15;5.07;;;1.80;;
10851;SDS011;5479;52.046;6.314;2023-03-14T13:18:46;8.30;;;1.87;;
10851;SDS011;5479;52.046;6.314;2023-03-14T13:21:15;6.60;;;1.97;;
10851;SDS011;5479;52.046;6.314;2023-03-14T13:23:58;4.27;;;1.80;;
10851;SDS011;5479;52.046;6.314;2023-03-14T13:26:32;4.73;;;1.60;;
10851;SDS011;5479;52.046;6.314;2023-03-14T13:29:09;8.97;;;2.43;;
10851;SDS011;5479;52.046;6.314;2023-03-14T13:31:43;6.50;;;1.60;;
10851;SDS011;5479;52.046;6.314;2023-03-14T13:34:11;6.47;;;1.80;;
10851;SDS011;5479;52.046;6.314;2023-03-14T13:36:40;4.97;;;1.50;;
10851;SDS011;5479;52.046;6.314;2023-03-14T13:39:09;7.07;;;1.60;;
10851;SDS011;5479;52.046;6.314;2023-03-14T13:41:41;4.30;;;1.47;;
10851;SDS011;5479;52.046;6.314;2023-03-14T13:44:15;4.67;;;1.80;;
10851;SDS011;5479;52.046;6.314;2023-03-14T13:46:46;3.73;;;1.20;;
10851;SDS011;5479;52.046;6.314;2023-03-14T13:49:16;4.57;;;1.37;;
10851;SDS011;5479;52.046;6.314;2023-03-14T13:51:49;4.73;;;1.30;;
10851;SDS011;5479;52.046;6.314;2023-03-14T13:54:17;5.23;;;1.60;;
10851;SDS011;5479;52.046;6.314;2023-03-14T13:56:47;5.07;;;2.10;;
10851;SDS011;5479;52.046;6.314;2023-03-14T13:59:23;7.27;;;1.80;;
10851;SDS011;5479;52.046;6.314;2023-03-14T14:01:52;7.50;;;1.60;;
10851;SDS011;5479;52.046;6.314;2023-03-14T14:04:22;5.53;;;1.40;;
10851;SDS011;5479;52.046;6.314;2023-03-14T14:06:53;4.13;;;1.40;;
10851;SDS011;5479;52.046;6.314;2023-03-14T14:09:24;6.40;;;1.73;;
10851;SDS011;5479;52.046;6.314;2023-03-14T14:11:55;5.40;;;1.53;;
10851;SDS011;5479;52.046;6.314;2023-03-14T14:14:28;5.07;;;1.37;;
10851;SDS011;5479;52.046;6.314;2023-03-14T14:17:03;3.40;;;1.30;;
10851;SDS011;5479;52.046;6.314;2023-03-14T14:19:33;6.87;;;1.43;;
10851;SDS011;5479;52.046;6.314;2023-03-14T14:22:02;5.67;;;1.57;;
10851;SDS011;5479;52.046;6.314;2023-03-14T14:24:34;4.53;;;1.27;;
10851;SDS011;5479;52.046;6.314;2023-03-14T14:27:08;6.90;;;1.30;;
10851;SDS011;5479;52.046;6.314;2023-03-14T14:29:42;4.43;;;1.47;;
10851;SDS011;5479;52.046;6.314;2023-03-14T14:32:13;5.27;;;1.30;;
10851;SDS011;5479;52.046;6.314;2023-03-14T14:34:42;5.13;;;1.73;;
10851;SDS011;5479;52.046;6.314;2023-03-14T14:37:21;6.37;;;1.63;;
10851;SDS011;5479;52.046;6.314;2023-03-14T14:39:52;3.10;;;1.40;;
10851;SDS011;5479;52.046;6.314;2023-03-14T14:42:21;4.03;;;1.30;;
10851;SDS011;5479;52.046;6.314;2023-03-14T14:44:55;6.30;;;1.60;;
10851;SDS011;5479;52.046;6.314;2023-03-14T14:47:24;3.37;;;1.20;;
10851;SDS011;5479;52.046;6.314;2023-03-14T14:49:54;5.33;;;1.40;;
10851;SDS011;5479;52.046;6.314;2023-03-14T14:52:31;4.03;;;1.40;;
10851;SDS011;5479;52.046;6.314;2023-03-14T14:55:11;4.23;;;1.20;;
10851;SDS011;5479;52.046;6.314;2023-03-14T14:57:40;5.30;;;1.30;;
10851;SDS011;5479;52.046;6.314;2023-03-14T15:00:19;4.77;;;1.50;;
10851;SDS011;5479;52.046;6.314;2023-03-14T15:02:48;3.77;;;1.40;;
10851;SDS011;5479;52.046;6.314;2023-03-14T15:05:19;3.43;;;1.40;;
10851;SDS011;5479;52.046;6.314;2023-03-14T15:07:47;4.33;;;1.37;;
10851;SDS011;5479;52.046;6.314;2023-03-14T15:10:16;4.07;;;1.83;;
10851;SDS011;5479;52.046;6.314;2023-03-14T15:12:45;4.33;;;1.37;;
10851;SDS011;5479;52.046;6.314;2023-03-14T15:15:14;5.17;;;1.60;;
10851;SDS011;5479;52.046;6.314;2023-03-14T15:17:44;5.13;;;1.67;;
10851;SDS011;5479;52.046;6.314;2023-03-14T15:20:13;5.13;;;1.47;;
10851;SDS011;5479;52.046;6.314;2023-03-14T15:22:42;4.70;;;1.27;;
10851;SDS011;5479;52.046;6.314;2023-03-14T15:25:11;3.70;;;1.30;;
10851;SDS011;5479;52.046;6.314;2023-03-14T15:27:39;4.50;;;1.57;;
10851;SDS011;5479;52.046;6.314;2023-03-14T15:30:10;4.33;;;1.50;;
10851;SDS011;5479;52.046;6.314;2023-03-14T15:32:38;6.37;;;1.80;;
10851;SDS011;5479;52.046;6.314;2023-03-14T15:35:08;7.93;;;1.67;;